createdAt,value
2022-12-06T00:00:02.592Z,10.9
2022-12-06T00:02:07.278Z,10
2022-12-06T00:03:07.480Z,9.9
2022-12-06T00:04:10.612Z,9.6
2022-12-06T00:05:08.819Z,9.7
2022-12-06T00:06:11.645Z,11.3
2022-12-06T00:07:09.090Z,8.5
2022-12-06T00:08:09.563Z,11.4
2022-12-06T00:10:14.090Z,11.1
2022-12-06T00:12:15.540Z,10.6
2022-12-06T00:13:15.860Z,8.8
2022-12-06T00:14:16.680Z,9.3
2022-12-06T00:15:16.929Z,10
2022-12-06T00:16:17.639Z,11.5
2022-12-06T00:17:17.462Z,11.5
2022-12-06T00:18:17.968Z,8.5
2022-12-06T00:19:21.967Z,9.9
2022-12-06T00:20:19.820Z,12.3
2022-12-06T00:21:25.673Z,12.9
2022-12-06T00:22:23.120Z,11.9
2022-12-06T00:23:26.476Z,9.9
2022-12-06T00:24:26.401Z,11.9
2022-12-06T00:25:26.717Z,11.3
2022-12-06T00:26:27.336Z,9.2
2022-12-06T00:27:27.343Z,12.6
2022-12-06T00:28:27.770Z,10.3
2022-12-06T00:29:28.175Z,9.9
2022-12-06T00:30:28.493Z,10.8
2022-12-06T00:31:31.030Z,12.2
2022-12-06T00:32:29.680Z,12.5
2022-12-06T00:33:30.252Z,11.6
2022-12-06T00:34:30.276Z,10.9
2022-12-06T00:35:30.580Z,11.6
2022-12-06T00:36:36.732Z,12.3
2022-12-06T00:37:34.405Z,12.4
2022-12-06T00:38:34.892Z,13.5
2022-12-06T00:39:34.761Z,10.6
2022-12-06T00:40:35.122Z,10.1
2022-12-06T00:41:35.644Z,11.2
2022-12-06T00:42:36.041Z,8.4
2022-12-06T00:43:37.189Z,11.2
2022-12-06T00:44:36.789Z,11.5
2022-12-06T00:45:37.239Z,15.3
2022-12-06T00:46:38.541Z,11.2
2022-12-06T00:47:37.917Z,10.5
2022-12-06T00:48:38.244Z,12.9
2022-12-06T00:49:38.553Z,11.8
2022-12-06T00:50:39.089Z,12.8
2022-12-06T00:51:40.619Z,12.3
2022-12-06T00:52:39.698Z,11.4
2022-12-06T00:53:40.120Z,13.1
2022-12-06T00:54:40.541Z,11.2
2022-12-06T00:55:40.789Z,11.6
2022-12-06T00:56:41.469Z,11.4
2022-12-06T00:57:41.580Z,11.1
2022-12-06T00:58:42.352Z,11.5
2022-12-06T00:59:42.509Z,11.3
2022-12-06T01:00:43.228Z,12.2
2022-12-06T01:01:43.257Z,10.1
2022-12-06T01:02:43.482Z,11.9
2022-12-06T01:03:45.414Z,12.5
2022-12-06T01:04:44.340Z,14.7
2022-12-06T01:05:47.668Z,10.9
2022-12-06T01:06:45.419Z,10.7
2022-12-06T01:07:45.625Z,11.5
2022-12-06T01:08:45.848Z,12.4
2022-12-06T01:09:46.570Z,11.4
2022-12-06T01:10:53.852Z,10.8
2022-12-06T01:11:51.300Z,14.3
2022-12-06T01:12:51.812Z,11.8
2022-12-06T01:13:52.941Z,16.6
2022-12-06T01:14:52.439Z,12.5
2022-12-06T01:15:52.751Z,10.5
2022-12-06T01:16:53.225Z,13.2
2022-12-06T01:17:53.492Z,10.6
2022-12-06T01:18:59.389Z,10.5
2022-12-06T01:19:57.070Z,15.1
2022-12-06T01:20:57.286Z,12.5
2022-12-06T01:21:57.493Z,11
2022-12-06T01:22:57.817Z,12.8
2022-12-06T01:23:58.961Z,14.4
2022-12-06T01:24:58.820Z,11.3
2022-12-06T01:25:58.965Z,10.9
2022-12-06T01:26:59.490Z,10.4
2022-12-06T01:27:59.903Z,12.7
2022-12-06T01:29:00.932Z,11.5
2022-12-06T01:30:00.972Z,12.1
2022-12-06T01:31:06.220Z,11.2
2022-12-06T01:32:03.811Z,9.6
2022-12-06T01:33:04.360Z,10.9
2022-12-06T01:34:04.455Z,10.8
2022-12-06T01:35:05.583Z,9.9
2022-12-06T01:36:05.482Z,11.7
2022-12-06T01:37:05.612Z,13
2022-12-06T01:38:06.492Z,10.7
2022-12-06T01:39:06.201Z,10.8
2022-12-06T01:40:08.175Z,10.7
2022-12-06T01:41:07.003Z,11
2022-12-06T01:42:09.712Z,10.4
2022-12-06T01:45:11.788Z,9.4
2022-12-06T01:48:15.181Z,9.6
2022-12-06T01:51:19.303Z,9.9
2022-12-06T01:52:22.677Z,9.8
2022-12-06T01:53:25.279Z,11.4
2022-12-06T01:54:25.767Z,11.6
2022-12-06T01:55:26.796Z,10.7
2022-12-06T01:56:24.138Z,9.6
2022-12-06T01:57:24.876Z,10.9
2022-12-06T01:58:32.144Z,10.3
2022-12-06T01:59:29.938Z,8.9
2022-12-06T02:00:29.699Z,9.3
2022-12-06T02:01:30.748Z,13.6
2022-12-06T02:02:30.830Z,10.4
2022-12-06T02:03:33.612Z,11.1
2022-12-06T02:04:32.055Z,10
2022-12-06T02:05:36.133Z,8.9
2022-12-06T02:06:37.224Z,9.8
2022-12-06T02:07:37.761Z,9.3
2022-12-06T02:08:38.832Z,11.7
2022-12-06T02:09:38.765Z,9.1
2022-12-06T02:10:38.849Z,11.8
2022-12-06T02:11:40.532Z,10
2022-12-06T02:12:38.894Z,10.2
2022-12-06T02:13:39.900Z,10.5
2022-12-06T02:14:40.550Z,10.6
2022-12-06T02:18:00.953Z,10.4
2022-12-06T02:22:14.994Z,10.7
2022-12-06T02:32:42.473Z,11.7
2022-12-06T02:35:43.144Z,12.6
2022-12-06T02:47:02.361Z,9.7
2022-12-06T02:48:03.394Z,11.8
2022-12-06T02:49:04.254Z,11.3
2022-12-06T02:50:05.762Z,10.3
2022-12-06T02:52:05.752Z,10.9
2022-12-06T02:54:10.714Z,10.7
2022-12-06T02:55:10.498Z,10.7
2022-12-06T02:56:09.180Z,11.5
2022-12-06T02:57:09.293Z,11.1
2022-12-06T02:58:10.788Z,11.2
2022-12-06T02:59:10.629Z,13.3
2022-12-06T03:01:20.767Z,10.1
2022-12-06T03:02:18.569Z,11.5
2022-12-06T03:16:04.990Z,11.1
2022-12-06T03:21:18.979Z,13.2
2022-12-06T03:22:24.805Z,14
2022-12-06T03:23:23.080Z,14.2
2022-12-06T03:24:22.572Z,16.2
2022-12-06T03:25:21.461Z,12
2022-12-06T03:26:26.483Z,14.5
2022-12-06T03:27:25.758Z,12.8
2022-12-06T03:28:24.686Z,11.1
2022-12-06T03:29:28.231Z,11.8
2022-12-06T03:30:25.685Z,11.8
2022-12-06T03:31:28.931Z,14.4
2022-12-06T03:32:30.924Z,15.4
2022-12-06T03:33:30.222Z,14
2022-12-06T03:34:35.741Z,13.8
2022-12-06T03:35:35.863Z,13.9
2022-12-06T03:36:34.230Z,14.3
2022-12-06T03:37:38.023Z,13.1
2022-12-06T03:38:40.887Z,13.8
2022-12-06T03:40:42.095Z,12.9
2022-12-06T03:42:44.700Z,13.2
2022-12-06T03:43:45.122Z,13.1
2022-12-06T03:44:45.949Z,13.6
2022-12-06T03:46:56.337Z,12.9
2022-12-06T03:52:03.394Z,14.6
2022-12-06T03:53:02.904Z,14.8
2022-12-06T03:54:05.572Z,11.1
2022-12-06T03:55:04.103Z,11.8
2022-12-06T03:56:04.562Z,15.1
2022-12-06T03:57:04.356Z,12.6
2022-12-06T03:58:04.537Z,13.6
2022-12-06T03:59:06.268Z,12.3
2022-12-06T04:00:06.629Z,13.2
2022-12-06T04:01:05.901Z,13.9
2022-12-06T04:02:06.447Z,14.1
2022-12-06T04:03:06.551Z,14.2
2022-12-06T04:04:07.060Z,13.4
2022-12-06T04:05:07.844Z,11.9
2022-12-06T04:06:09.021Z,12.1
2022-12-06T04:07:09.750Z,11.7
2022-12-06T04:08:08.464Z,12.1
2022-12-06T04:09:08.736Z,12.4
2022-12-06T04:10:09.770Z,14
2022-12-06T04:11:09.531Z,13.7
2022-12-06T04:12:09.778Z,14.1
2022-12-06T04:13:13.137Z,14
2022-12-06T04:14:14.210Z,13
2022-12-06T04:15:15.346Z,11.5
2022-12-06T04:16:15.104Z,12.4
2022-12-06T04:17:15.241Z,12.6
2022-12-06T04:18:16.557Z,12.7
2022-12-06T04:19:15.990Z,12.4
2022-12-06T04:20:16.590Z,10.1
2022-12-06T04:21:16.619Z,11.5
2022-12-06T04:22:17.132Z,13.8
2022-12-06T04:23:18.664Z,12
2022-12-06T04:24:18.584Z,15.2
2022-12-06T04:25:18.385Z,12.9
2022-12-06T04:26:21.968Z,11.8
2022-12-06T04:27:19.406Z,10.8
2022-12-06T04:28:19.669Z,12.6
2022-12-06T04:29:20.556Z,16.4
2022-12-06T04:30:20.462Z,12.2
2022-12-06T04:31:22.523Z,13.7
2022-12-06T04:32:21.042Z,12.7
2022-12-06T04:33:21.485Z,12.7
2022-12-06T04:34:22.210Z,10.4
2022-12-06T04:35:22.290Z,11.8
2022-12-06T04:36:22.734Z,12.6
2022-12-06T04:37:23.155Z,11.2
2022-12-06T04:38:23.367Z,11.4
2022-12-06T04:39:24.289Z,11
2022-12-06T04:40:24.398Z,11
2022-12-06T04:41:24.683Z,15
2022-12-06T04:42:24.933Z,12.2
2022-12-06T04:43:25.400Z,13.5
2022-12-06T04:44:25.673Z,12.6
2022-12-06T04:45:26.072Z,10.5
2022-12-06T04:46:26.751Z,10
2022-12-06T04:47:26.904Z,13.1
2022-12-06T04:48:27.428Z,9.8
2022-12-06T04:49:27.939Z,24.5
2022-12-06T04:50:28.068Z,19.8
2022-12-06T04:51:28.896Z,19.5
2022-12-06T04:52:34.051Z,11.3
2022-12-06T04:53:33.345Z,13.9
2022-12-06T04:54:33.609Z,12
2022-12-06T04:55:33.568Z,12.7
2022-12-06T04:56:34.443Z,10.7
2022-12-06T04:57:34.558Z,10
2022-12-06T04:58:35.176Z,10.2
2022-12-06T04:59:35.281Z,10.7
2022-12-06T05:00:35.649Z,11.6
2022-12-06T05:01:36.435Z,10.5
2022-12-06T05:02:36.436Z,10.6
2022-12-06T05:03:40.952Z,9.6
2022-12-06T05:04:41.975Z,12.5
2022-12-06T05:05:42.506Z,10.4
2022-12-06T05:06:42.287Z,9.9
2022-12-06T05:07:42.527Z,9.6
2022-12-06T05:08:43.045Z,9.2
2022-12-06T05:09:43.538Z,11.5
2022-12-06T05:11:45.703Z,12.7
2022-12-06T05:12:46.125Z,10.2
2022-12-06T05:13:46.434Z,12.1
2022-12-06T05:14:46.753Z,11.3
2022-12-06T05:16:48.289Z,10.9
2022-12-06T05:17:48.604Z,11
2022-12-06T05:18:48.778Z,11.2
2022-12-06T05:19:49.361Z,13.3
2022-12-06T05:20:49.548Z,9.6
2022-12-06T05:21:50.167Z,10
2022-12-06T05:22:50.596Z,35.9
2022-12-06T05:23:53.353Z,20.2
2022-12-06T05:24:51.233Z,10.2
2022-12-06T05:25:51.522Z,10
2022-12-06T05:26:52.071Z,10.3
2022-12-06T05:28:53.559Z,10.8
2022-12-06T05:29:53.101Z,8.8
2022-12-06T05:30:53.374Z,10.9
2022-12-06T05:31:53.973Z,9.2
2022-12-06T05:32:57.065Z,12.3
2022-12-06T05:33:54.617Z,10.5
2022-12-06T05:34:54.968Z,15.9
2022-12-06T05:35:55.435Z,17.8
2022-12-06T05:36:55.792Z,12.5
2022-12-06T05:37:56.048Z,12.2
2022-12-06T05:38:57.038Z,11.3
2022-12-06T05:39:57.064Z,12.2
2022-12-06T05:40:57.569Z,18.3
2022-12-06T05:41:57.772Z,10.9
2022-12-06T05:42:58.044Z,11.8
2022-12-06T05:43:58.406Z,11.8
2022-12-06T05:44:58.825Z,9.3
2022-12-06T05:46:00.183Z,8.8
2022-12-06T05:46:59.855Z,8.7
2022-12-06T05:48:00.071Z,9.7
2022-12-06T05:49:00.484Z,9.4
2022-12-06T05:50:01.109Z,9.1
2022-12-06T05:51:01.426Z,7.9
2022-12-06T05:52:04.158Z,8.3
2022-12-06T05:53:02.343Z,7.8
2022-12-06T05:54:02.317Z,7.8
2022-12-06T05:55:02.773Z,7.7
2022-12-06T05:56:07.397Z,8.9
2022-12-06T05:57:04.833Z,8.8
2022-12-06T05:58:05.397Z,9.7
2022-12-06T05:59:05.773Z,8
2022-12-06T06:00:07.074Z,8.9
2022-12-06T06:01:07.440Z,9.7
2022-12-06T06:02:06.728Z,7.9
2022-12-06T06:03:07.471Z,7
2022-12-06T06:04:07.680Z,10
2022-12-06T06:05:08.471Z,9.4
2022-12-06T06:06:08.528Z,8.7
2022-12-06T06:07:08.434Z,7.5
2022-12-06T06:08:09.017Z,8.7
2022-12-06T06:09:09.419Z,8.8
2022-12-06T06:10:10.395Z,8.7
2022-12-06T06:11:10.117Z,9
2022-12-06T06:12:12.653Z,7.3
2022-12-06T06:13:10.988Z,8.1
2022-12-06T06:14:11.298Z,8
2022-12-06T06:15:13.099Z,6.9
2022-12-06T06:16:12.025Z,6.9
2022-12-06T06:17:12.461Z,7.9
2022-12-06T06:18:12.761Z,7.7
2022-12-06T06:19:13.788Z,7.5
2022-12-06T06:20:13.812Z,7.5
2022-12-06T06:21:14.310Z,8.4
2022-12-06T06:22:14.324Z,7.1
2022-12-06T06:23:14.842Z,7.6
2022-12-06T06:24:15.151Z,6.6
2022-12-06T06:25:15.631Z,6.9
2022-12-06T06:26:15.880Z,7.5
2022-12-06T06:27:16.193Z,6.6
2022-12-06T06:28:17.434Z,7.2
2022-12-06T06:29:17.028Z,7.6
2022-12-06T06:30:17.962Z,6.6
2022-12-06T06:31:17.947Z,5.9
2022-12-06T06:32:18.373Z,6.7
2022-12-06T06:33:18.544Z,6.7
2022-12-06T06:34:19.309Z,6.4
2022-12-06T06:35:19.426Z,6.5
2022-12-06T06:36:19.841Z,8.4
2022-12-06T06:37:20.457Z,8.2
2022-12-06T06:38:20.571Z,7
2022-12-06T06:39:20.881Z,7.4
2022-12-06T06:41:21.818Z,7.1
2022-12-06T06:42:22.557Z,8.2
2022-12-06T06:43:22.546Z,7.4
2022-12-06T06:44:22.964Z,8.5
2022-12-06T06:45:28.565Z,7.7
2022-12-06T06:46:26.941Z,6.5
2022-12-06T06:47:27.191Z,6.4
2022-12-06T06:48:30.150Z,7.2
2022-12-06T06:49:27.907Z,6.7
2022-12-06T06:50:28.366Z,7.6
2022-12-06T06:51:30.691Z,23.3
2022-12-06T06:52:29.256Z,15.6
2022-12-06T06:53:29.504Z,8.2
2022-12-06T06:54:29.884Z,6.7
2022-12-06T06:55:30.409Z,6.7
2022-12-06T06:56:30.628Z,5.5
2022-12-06T06:57:31.349Z,7.3
2022-12-06T06:58:31.666Z,8.8
2022-12-06T06:59:31.768Z,11.3
2022-12-06T07:00:35.154Z,7.9
2022-12-06T07:01:32.805Z,9.1
2022-12-06T07:02:33.288Z,8.3
2022-12-06T07:03:34.459Z,8.4
2022-12-06T07:04:33.856Z,8.6
2022-12-06T07:05:34.462Z,6.9
2022-12-06T07:06:34.592Z,7
2022-12-06T07:07:35.091Z,7.6
2022-12-06T07:08:35.612Z,8.4
2022-12-06T07:09:36.037Z,7.3
2022-12-06T07:10:36.149Z,6.2
2022-12-06T07:11:36.715Z,6.7
2022-12-06T07:12:37.179Z,7.8
2022-12-06T07:13:38.928Z,6.7
2022-12-06T07:14:38.044Z,6.5
2022-12-06T07:15:38.120Z,7.1
2022-12-06T07:16:38.563Z,5.6
2022-12-06T07:17:38.902Z,8.2
2022-12-06T07:18:39.265Z,6.8
2022-12-06T07:19:39.788Z,7
2022-12-06T07:20:40.101Z,6.6
2022-12-06T07:21:40.621Z,7.6
2022-12-06T07:22:41.026Z,6.7
2022-12-06T07:23:41.402Z,6.6
2022-12-06T07:24:44.551Z,6.8
2022-12-06T07:25:45.578Z,7.2
2022-12-06T07:26:45.878Z,6.8
2022-12-06T07:27:46.308Z,7.7
2022-12-06T07:28:48.854Z,7
2022-12-06T07:29:46.999Z,6.3
2022-12-06T07:30:47.393Z,6.6
2022-12-06T07:31:47.752Z,6.6
2022-12-06T07:32:48.265Z,7.9
2022-12-06T07:33:51.251Z,7
2022-12-06T07:34:48.891Z,6.5
2022-12-06T07:36:50.348Z,6.5
2022-12-06T07:37:50.657Z,11.5
2022-12-06T07:38:53.527Z,7
2022-12-06T07:39:51.690Z,6.4
2022-12-06T07:41:07.205Z,8.1
2022-12-06T07:41:54.780Z,8.8
2022-12-06T07:42:55.103Z,7.3
2022-12-06T07:43:57.824Z,7.1
2022-12-06T07:45:01.311Z,7
2022-12-06T07:45:59.570Z,6.3
2022-12-06T07:47:00.143Z,6.6
2022-12-06T07:48:00.459Z,6
2022-12-06T07:49:00.840Z,6.8
2022-12-06T07:50:01.734Z,6.9
2022-12-06T07:51:07.639Z,6.7
2022-12-06T07:52:05.389Z,6.8
2022-12-06T07:53:05.394Z,7
2022-12-06T07:54:06.390Z,6.6
2022-12-06T07:55:07.761Z,7.3
2022-12-06T07:56:08.053Z,6.2
2022-12-06T07:57:06.954Z,8.2
2022-12-06T07:58:07.455Z,6.6
2022-12-06T07:59:07.996Z,5.8
2022-12-06T08:00:10.978Z,5.9
2022-12-06T08:01:08.610Z,6.1
2022-12-06T08:02:22.563Z,7.6
2022-12-06T08:03:10.071Z,7.9
2022-12-06T08:04:10.626Z,6.1
2022-12-06T08:05:11.722Z,6.5
2022-12-06T08:06:11.113Z,7.3
2022-12-06T08:07:11.644Z,6.7
2022-12-06T08:08:11.893Z,6.9
2022-12-06T08:09:12.361Z,7.6
2022-12-06T08:10:12.998Z,8.3
2022-12-06T08:11:13.302Z,7.4
2022-12-06T08:12:13.926Z,7.7
2022-12-06T08:13:13.980Z,6.3
2022-12-06T08:14:14.349Z,7.9
2022-12-06T08:15:15.145Z,6.4
2022-12-06T08:16:15.224Z,6.6
2022-12-06T08:17:16.205Z,7.5
2022-12-06T08:18:16.015Z,6.2
2022-12-06T08:19:16.231Z,6.4
2022-12-06T08:20:16.938Z,6.5
2022-12-06T08:21:17.353Z,6.2
2022-12-06T08:22:17.462Z,6.5
2022-12-06T08:23:17.907Z,7.4
2022-12-06T08:24:18.601Z,6.3
2022-12-06T08:25:18.717Z,8
2022-12-06T08:26:19.147Z,6.8
2022-12-06T08:27:19.446Z,7.4
2022-12-06T08:28:19.769Z,6.2
2022-12-06T08:29:20.475Z,8.9
2022-12-06T08:30:20.807Z,7.4
2022-12-06T08:31:23.916Z,6.7
2022-12-06T08:32:21.491Z,7.4
2022-12-06T08:33:21.948Z,6.2
2022-12-06T08:34:22.255Z,7.7
2022-12-06T08:35:22.772Z,7.4
2022-12-06T08:36:24.321Z,7.1
2022-12-06T08:37:23.464Z,6.8
2022-12-06T08:38:23.824Z,7.1
2022-12-06T08:39:24.342Z,7.8
2022-12-06T08:40:24.653Z,8
2022-12-06T08:41:25.178Z,7.5
2022-12-06T08:42:25.799Z,8.1
2022-12-06T08:43:25.757Z,8.2
2022-12-06T08:44:27.961Z,7.5
2022-12-06T08:45:26.954Z,7.6
2022-12-06T08:46:28.513Z,6.8
2022-12-06T08:47:27.469Z,7.3
2022-12-06T08:48:27.776Z,7.6
2022-12-06T08:49:30.036Z,9.4
2022-12-06T08:50:28.876Z,7.2
2022-12-06T08:51:29.744Z,6.7
2022-12-06T08:52:29.545Z,6.8
2022-12-06T08:53:30.525Z,8.5
2022-12-06T08:54:31.092Z,11.2
2022-12-06T08:55:31.306Z,8.8
2022-12-06T08:56:32.038Z,7.9
2022-12-06T08:57:33.366Z,7.5
2022-12-06T08:58:32.709Z,7.9
2022-12-06T08:59:33.283Z,7.9
2022-12-06T09:00:33.276Z,8.7
2022-12-06T09:01:37.997Z,7.2
2022-12-06T09:02:38.415Z,9.3
2022-12-06T09:03:36.690Z,7.2
2022-12-06T09:04:37.328Z,7.2
2022-12-06T09:05:37.304Z,7.7
2022-12-06T09:06:39.776Z,7.2
2022-12-06T09:07:38.184Z,6.8
2022-12-06T09:08:38.894Z,7.3
2022-12-06T09:09:39.329Z,8.5
2022-12-06T09:10:39.352Z,7.1
2022-12-06T09:11:40.732Z,7.7
2022-12-06T09:12:40.020Z,7
2022-12-06T09:13:41.220Z,7.8
2022-12-06T09:14:41.059Z,7.4
2022-12-06T09:15:41.621Z,7.4
2022-12-06T09:16:43.127Z,9.3
2022-12-06T09:17:41.970Z,6.3
2022-12-06T09:18:44.457Z,7.7
2022-12-06T09:19:43.135Z,8.1
2022-12-06T09:20:43.257Z,8.6
2022-12-06T09:21:44.073Z,7.4
2022-12-06T09:22:45.006Z,7.9
2022-12-06T09:23:44.908Z,9.3
2022-12-06T09:24:45.216Z,7.2
2022-12-06T09:25:45.326Z,7.3
2022-12-06T09:26:45.757Z,5.8
2022-12-06T09:27:45.949Z,7.1
2022-12-06T09:28:48.006Z,7.8
2022-12-06T09:29:47.369Z,7
2022-12-06T09:30:47.357Z,7.2
2022-12-06T09:31:47.939Z,6.6
2022-12-06T09:32:48.147Z,7.6
2022-12-06T09:33:48.660Z,9.1
2022-12-06T09:34:48.774Z,8.9
2022-12-06T09:35:51.436Z,8
2022-12-06T09:37:50.778Z,7.5
2022-12-06T09:39:54.179Z,7.5
2022-12-06T09:56:41.134Z,7.1
2022-12-06T10:06:03.014Z,8.1
2022-12-06T10:26:52.622Z,9.5
2022-12-06T10:29:59.414Z,7.4
2022-12-06T10:31:08.984Z,9.4
2022-12-06T10:34:22.531Z,8.5
2022-12-06T10:45:49.362Z,9.3
2022-12-06T10:46:53.165Z,10.1
2022-12-06T10:47:45.973Z,9.7
2022-12-06T10:53:13.236Z,15.6
2022-12-06T10:54:10.891Z,11.5
2022-12-06T11:07:37.886Z,9.9
2022-12-06T11:08:38.221Z,11.1
2022-12-06T11:10:34.853Z,10
2022-12-06T11:11:36.897Z,9.9
2022-12-06T11:12:38.802Z,9.7
2022-12-06T11:13:45.211Z,11.9
2022-12-06T11:14:45.115Z,11.7
2022-12-06T11:15:50.197Z,13.6
2022-12-06T11:17:47.493Z,12.4
2022-12-06T11:18:46.175Z,11
2022-12-06T11:21:56.749Z,12.3
2022-12-06T11:32:16.977Z,13.4
2022-12-06T11:33:15.649Z,12.3
2022-12-06T11:36:24.680Z,13.7
2022-12-06T11:37:27.049Z,12.6
2022-12-06T11:38:24.590Z,10.4
2022-12-06T11:39:26.040Z,11.5
2022-12-06T11:41:33.623Z,11.6
2022-12-06T11:42:31.376Z,10.8
2022-12-06T11:43:33.532Z,10.1
2022-12-06T11:45:34.472Z,11
2022-12-06T11:46:33.215Z,12.4
2022-12-06T11:47:33.263Z,11.3
2022-12-06T11:48:35.718Z,10.2
2022-12-06T11:50:38.520Z,15.6
2022-12-06T11:51:38.911Z,9.8
2022-12-06T11:55:49.382Z,12
2022-12-06T11:56:46.932Z,11
2022-12-06T11:57:55.951Z,9
2022-12-06T12:01:58.064Z,10.3
2022-12-06T12:02:57.471Z,10.4
2022-12-06T12:03:56.497Z,9.6
2022-12-06T12:09:06.361Z,8.8
2022-12-06T12:11:21.335Z,9.6
2022-12-06T12:12:17.856Z,11.8
2022-12-06T12:13:21.444Z,12.4
2022-12-06T12:14:26.572Z,12.4
2022-12-06T12:15:24.228Z,14.3
2022-12-06T12:20:44.644Z,10.8
2022-12-06T12:21:42.384Z,18.2
2022-12-06T12:22:42.610Z,18.9
2022-12-06T12:23:45.881Z,14.7
2022-12-06T12:25:17.879Z,11.8
2022-12-06T12:26:48.868Z,8.9
2022-12-06T12:27:52.771Z,8.5
2022-12-06T12:30:54.533Z,8.9
2022-12-06T12:44:42.479Z,9.2
2022-12-06T12:45:25.338Z,10.3
2022-12-06T12:46:26.223Z,14.9
2022-12-06T12:47:26.487Z,10.9
2022-12-06T12:48:27.923Z,8.9
2022-12-06T12:49:30.288Z,10.4
2022-12-06T12:50:30.102Z,10.4
2022-12-06T12:54:36.688Z,7.5
2022-12-06T12:55:34.316Z,7.1
2022-12-06T12:56:37.605Z,7.5
2022-12-06T12:57:35.259Z,7.7
2022-12-06T12:58:36.361Z,9.4
2022-12-06T12:59:41.309Z,7.5
2022-12-06T13:00:43.463Z,8.7
2022-12-06T13:02:51.237Z,8.1
2022-12-06T13:03:52.955Z,7.7
2022-12-06T13:05:11.027Z,8.1
2022-12-06T13:05:53.118Z,10.8
2022-12-06T13:09:00.717Z,8.1
2022-12-06T13:11:05.685Z,7.2
2022-12-06T13:12:07.288Z,7.5
2022-12-06T13:16:21.455Z,16.6
2022-12-06T13:17:14.978Z,8.6
2022-12-06T13:18:23.308Z,17.3
2022-12-06T13:19:17.683Z,8.9
2022-12-06T13:20:25.474Z,8
2022-12-06T13:21:27.639Z,9.1
2022-12-06T13:23:27.682Z,10.1
2022-12-06T13:24:28.731Z,12.4
2022-12-06T13:25:26.417Z,8.5
2022-12-06T13:26:33.899Z,9.8
2022-12-06T13:27:42.847Z,7.6
2022-12-06T13:28:45.497Z,6.5
2022-12-06T13:29:48.674Z,6.9
2022-12-06T13:30:42.359Z,9.7
2022-12-06T13:31:42.233Z,13.5
2022-12-06T13:32:47.261Z,23.4
2022-12-06T13:34:54.154Z,23.2
2022-12-06T13:36:46.884Z,9.4
2022-12-06T13:38:50.269Z,9.2
2022-12-06T13:39:50.683Z,8
2022-12-06T13:40:56.033Z,8.7
2022-12-06T13:41:56.838Z,8.7
2022-12-06T13:42:54.283Z,7
2022-12-06T13:43:54.709Z,8.4
2022-12-06T13:45:00.440Z,8.1
2022-12-06T13:48:04.154Z,8.6
2022-12-06T13:53:15.709Z,12.4
2022-12-06T13:57:23.162Z,7.7
2022-12-06T14:03:40.600Z,10.9
2022-12-06T14:04:38.867Z,10.3
2022-12-06T14:06:45.534Z,7.5
2022-12-06T14:07:43.528Z,8.3
2022-12-06T14:08:57.949Z,7.8
2022-12-06T14:09:48.041Z,10.6
2022-12-06T14:10:46.172Z,11.3
2022-12-06T14:11:48.345Z,9.2
2022-12-06T14:12:59.503Z,8.3
2022-12-06T14:13:49.986Z,8.3
2022-12-06T14:15:52.253Z,8.3
2022-12-06T14:17:00.801Z,8.9
2022-12-06T14:18:03.156Z,9.3
2022-12-06T14:18:58.839Z,8.1
2022-12-06T14:19:59.032Z,8.9
2022-12-06T14:21:01.094Z,8.4
2022-12-06T14:23:01.458Z,9.3
2022-12-06T14:24:02.034Z,9.8
2022-12-06T14:25:06.265Z,10.4
2022-12-06T14:28:13.218Z,9
2022-12-06T14:29:22.246Z,9
2022-12-06T14:30:25.246Z,9.4
2022-12-06T14:33:27.602Z,11.3
2022-12-06T14:37:36.426Z,10.2
2022-12-06T14:38:36.874Z,17.1
2022-12-06T14:39:37.147Z,20.9
2022-12-06T14:41:39.628Z,13.7
2022-12-06T14:42:39.826Z,16.5
2022-12-06T14:43:41.784Z,14.7
2022-12-06T14:44:46.608Z,12.5
2022-12-06T14:45:45.530Z,16.5
2022-12-06T14:46:48.656Z,10.8
2022-12-06T14:47:46.724Z,12.1
2022-12-06T14:48:47.758Z,10.1
2022-12-06T14:49:54.928Z,31.5
2022-12-06T14:50:53.054Z,16.1
2022-12-06T14:51:50.952Z,13.1
2022-12-06T14:53:54.128Z,11
2022-12-06T14:57:00.500Z,16.6
2022-12-06T14:59:09.275Z,9.1
2022-12-06T15:00:17.127Z,11.5
2022-12-06T15:06:23.702Z,9.6
2022-12-06T15:08:33.764Z,10.1
2022-12-06T15:09:29.978Z,11.1
2022-12-06T15:10:28.353Z,8.9
2022-12-06T15:11:36.851Z,9.2
2022-12-06T15:12:37.583Z,10.9
2022-12-06T15:13:30.618Z,9.5
2022-12-06T15:16:36.193Z,10.2
2022-12-06T15:17:36.276Z,8.8
2022-12-06T15:20:43.045Z,7.9
2022-12-06T15:21:43.127Z,8.5
2022-12-06T15:22:43.553Z,8.6
2022-12-06T15:24:49.528Z,8.6
2022-12-06T15:25:48.110Z,8.6
2022-12-06T15:26:48.846Z,10.5
2022-12-06T15:27:48.845Z,11.9
2022-12-06T15:28:49.969Z,13.8
2022-12-06T15:29:50.188Z,11.4
2022-12-06T15:30:50.790Z,9.5
2022-12-06T15:31:53.062Z,12.2
2022-12-06T15:32:50.803Z,9.5
2022-12-06T15:33:51.534Z,9.2
2022-12-06T15:34:51.959Z,11.6
2022-12-06T15:35:52.585Z,9.9
2022-12-06T15:37:08.973Z,9.8
2022-12-06T15:37:55.243Z,9
2022-12-06T15:38:55.561Z,14.3
2022-12-06T15:39:56.190Z,11
2022-12-06T15:40:56.637Z,9.6
2022-12-06T15:41:57.524Z,8
2022-12-06T15:43:02.142Z,10.3
2022-12-06T15:44:00.331Z,10.2
2022-12-06T15:45:01.157Z,11.3
2022-12-06T15:46:03.929Z,11.6
2022-12-06T15:47:01.673Z,9.9
2022-12-06T15:48:01.875Z,9.5
2022-12-06T15:49:02.289Z,9.6
2022-12-06T15:50:02.700Z,12.4
2022-12-06T15:51:09.289Z,9
2022-12-06T15:53:17.053Z,7.6
2022-12-06T15:54:19.836Z,9.1
2022-12-06T15:55:18.818Z,10
2022-12-06T15:56:19.645Z,10.2
2022-12-06T15:57:17.089Z,8.6
2022-12-06T15:58:17.702Z,10.5
2022-12-06T15:59:19.348Z,9
2022-12-06T16:00:18.936Z,8.7
2022-12-06T16:01:32.059Z,9.2
2022-12-06T16:02:19.689Z,10.7
2022-12-06T16:03:20.042Z,9.7
2022-12-06T16:04:22.868Z,8.8
2022-12-06T16:05:20.928Z,8.5
2022-12-06T16:06:22.339Z,15.1
2022-12-06T16:07:21.548Z,32.9
2022-12-06T16:08:22.409Z,31.2
2022-12-06T16:09:22.484Z,14.4
2022-12-06T16:10:29.271Z,10
2022-12-06T16:11:26.900Z,13.9
2022-12-06T16:12:25.172Z,17.1
2022-12-06T16:13:25.689Z,14.3
2022-12-06T16:14:26.010Z,14.9
2022-12-06T16:15:26.420Z,18.6
2022-12-06T16:16:27.299Z,15.5
2022-12-06T16:17:27.259Z,9.5
2022-12-06T16:18:27.919Z,9
2022-12-06T16:19:27.975Z,11
2022-12-06T16:20:28.436Z,12.5
2022-12-06T16:21:37.932Z,11.6
2022-12-06T16:22:30.523Z,11.8
2022-12-06T16:23:56.614Z,13.2
2022-12-06T16:24:34.273Z,16.1
2022-12-06T16:25:34.680Z,10.9
2022-12-06T16:26:38.014Z,7.4
2022-12-06T16:27:35.506Z,9.4
2022-12-06T16:28:35.694Z,10.2
2022-12-06T16:29:36.541Z,15.2
2022-12-06T16:30:36.656Z,11
2022-12-06T16:31:38.940Z,11.7
2022-12-06T16:32:37.388Z,9.8
2022-12-06T16:33:37.811Z,9.7
2022-12-06T16:34:38.319Z,8.4
2022-12-06T16:35:39.037Z,8
2022-12-06T16:37:39.472Z,8.1
2022-12-06T16:38:39.934Z,8.1
2022-12-06T16:39:40.085Z,7
2022-12-06T16:40:40.808Z,10.1
2022-12-06T16:41:41.032Z,11.5
2022-12-06T16:42:41.352Z,7.9
2022-12-06T16:43:41.649Z,8.4
2022-12-06T16:44:42.183Z,8.9
2022-12-06T16:45:44.737Z,9.1
2022-12-06T16:46:43.003Z,12.5
2022-12-06T16:47:43.626Z,15
2022-12-06T16:48:43.742Z,9.5
2022-12-06T16:49:46.519Z,12.6
2022-12-06T16:50:47.232Z,20.9
2022-12-06T16:51:46.012Z,14.2
2022-12-06T16:52:46.119Z,9.6
2022-12-06T16:53:46.322Z,8.5
2022-12-06T16:54:46.743Z,8.1
2022-12-06T16:55:47.265Z,8.9
2022-12-06T16:56:47.677Z,8.1
2022-12-06T16:57:47.887Z,8.6
2022-12-06T16:58:48.409Z,7.7
2022-12-06T16:59:48.716Z,11.9
2022-12-06T17:00:49.391Z,9.6
2022-12-06T17:01:52.329Z,8
2022-12-06T17:02:50.475Z,8.1
2022-12-06T17:04:56.228Z,7.3
2022-12-06T17:05:55.248Z,7.1
2022-12-06T17:06:55.706Z,7.5
2022-12-06T17:07:56.300Z,8.8
2022-12-06T17:08:57.386Z,7.4
2022-12-06T17:09:56.986Z,8.6
2022-12-06T17:10:57.303Z,8.5
2022-12-06T17:11:58.131Z,8.2
2022-12-06T17:12:58.747Z,9.1
2022-12-06T17:13:58.747Z,7.7
2022-12-06T17:15:00.169Z,7.6
2022-12-06T17:15:59.386Z,11.4
2022-12-06T17:17:02.945Z,9.7
2022-12-06T17:18:00.216Z,9.5
2022-12-06T17:19:02.577Z,13.4
2022-12-06T17:20:02.171Z,7.9
2022-12-06T17:21:06.257Z,8.1
2022-12-06T17:22:04.533Z,8.1
2022-12-06T17:23:04.657Z,8.5
2022-12-06T17:24:04.968Z,8.5
2022-12-06T17:25:05.474Z,8.2
2022-12-06T17:26:09.545Z,8.4
2022-12-06T17:27:07.341Z,7.2
2022-12-06T17:28:07.446Z,6.6
2022-12-06T17:29:08.686Z,6.3
2022-12-06T17:31:13.407Z,8.3
2022-12-06T17:32:14.545Z,8
2022-12-06T17:33:14.754Z,7.9
2022-12-06T17:34:15.572Z,8.5
2022-12-06T17:35:15.685Z,8.9
2022-12-06T17:36:17.581Z,8.3
2022-12-06T17:37:17.754Z,9.4
2022-12-06T17:38:18.977Z,8.4
2022-12-06T17:39:20.523Z,8.3
2022-12-06T17:40:19.290Z,10.1
2022-12-06T17:41:22.162Z,9.8
2022-12-06T17:42:19.732Z,7.2
2022-12-06T17:43:20.955Z,7.3
2022-12-06T17:44:21.573Z,7.3
2022-12-06T17:45:24.778Z,8.5
2022-12-06T17:46:23.235Z,7.7
2022-12-06T17:47:23.117Z,6.7
2022-12-06T17:48:23.357Z,7
2022-12-06T17:49:25.621Z,7.6
2022-12-06T17:50:24.062Z,7.7
2022-12-06T17:51:25.720Z,6.3
2022-12-06T17:52:24.770Z,6.4
2022-12-06T17:53:25.122Z,9.1
2022-12-06T17:54:25.639Z,7.1
2022-12-06T17:55:26.163Z,9.3
2022-12-06T17:57:31.592Z,8.1
2022-12-06T17:58:31.600Z,7.7
2022-12-06T17:59:33.475Z,7
2022-12-06T18:00:32.749Z,8
2022-12-06T18:01:58.009Z,8.8
2022-12-06T18:02:36.373Z,6.8
2022-12-06T18:03:36.605Z,7.4
2022-12-06T18:04:37.179Z,6.5
2022-12-06T18:05:37.492Z,8.8